Список аэропортов
Фактическая погода:

24 мая, 16:00
Температура: +22°C (+22.0*)
Ветер: юго-западный 3 м/с
Давление: *758 мм
Без существ. явл.
Время (МСК)Темп. СВетерВлажностьДавлениеОблачностьОсадки
15:00+24Ю, 3 м/с31%1011 гПаоблачно
16:00+23Ю, 3 м/с34%1010 гПаоблачно
17:00+22Ю, 3 м/с44%1010 гПаоблачносл. дождь
18:00+22Ю, 3 м/с49%1010 гПаоблачно
19:00+22Ю, 3 м/с52%1010 гПамалооблачно
20:00+20Ю, 3 м/с60%1010 гПаоблачно
21:00+19Ю, 2 м/с70%1011 гПаоблачно
22:00+17Ю, 3 м/с62%1011 гПаоблачно
23:00+16ЮЗ, 3 м/с59%1011 гПаоблачно
25 мая
00:00+15ЮЗ, 2 м/с64%1011 гПаоблачно
01:00+14ЮЗ, 2 м/с70%1011 гПаоблачно
02:00+14ЮЗ, 3 м/с68%1011 гПаоблачно
03:00+14ЮЗ, 2 м/с78%1011 гПаоблачносл. дождь
04:00+14ЮЗ, 3 м/с84%1011 гПаоблачносл. дождь
05:00+13ЮЗ, 2 м/с88%1011 гПаоблачносл. дождь
06:00+14Ю, 3 м/с89%1011 гПаоблачно
07:00+14Ю, 3 м/с88%1011 гПаоблачно
08:00+16Ю, 3 м/с77%1010 гПаоблачно
09:00+19Ю, 3 м/с61%1010 гПаоблачно
10:00+21Ю, 4 м/с54%1009 гПаоблачно
11:00+22Ю, 6 м/с53%1008 гПаоблачно
12:00+22ЮЗ, 8 м/с46%1008 гПаоблачносл. дождь
13:00+23ЮЗ, 9 м/с42%1007 гПаоблачносл. дождь
14:00+22ЮЗ, 10 м/с39%1007 гПаоблачносл. дождь
15:00+21З, 9 м/с54%1008 гПаоблачнодождь
16:00+16З, 8 м/с83%1009 гПаоблачнодождь
17:00+17ЮЗ, 5 м/с81%1009 гПаоблачносл. дождь
18:00+17ЮЗ, 5 м/с75%1009 гПаоблачно
19:00+17ЮЗ, 5 м/с71%1009 гПаоблачно
20:00+17ЮЗ, 4 м/с74%1009 гПаоблачно
21:00+15Ю, 4 м/с85%1009 гПаоблачно
22:00+15ЮЗ, 4 м/с88%1009 гПаоблачно
23:00+14ЮЗ, 3 м/с91%1009 гПас прояснениями
26 мая
00:00+13ЮЗ, 3 м/с95%1009 гПас прояснениями
01:00+12ЮЗ, 2 м/с96%1009 гПаоблачно
02:00+12ЮЗ, 2 м/с98%1009 гПаоблачно
03:00+11ЮЗ, 2 м/с99%1008 гПаоблачно
04:00+11ЮЗ, 2 м/с99%1008 гПаоблачно
05:00+11Ю, 2 м/с99%1008 гПаоблачно
06:00+12Ю, 2 м/с97%1007 гПаоблачно
07:00+13Ю, 1 м/с91%1007 гПаоблачно
08:00+16Ю, 1 м/с77%1006 гПаоблачно
09:00+17Ю, 3 м/с70%1006 гПаоблачно
10:00+18Ю, 3 м/с69%1005 гПаоблачно
11:00+20ЮЗ, 2 м/с55%1005 гПаоблачносл. дождь
12:00+20ЮЗ, 2 м/с48%1004 гПаоблачно
13:00+19ЮЗ, 3 м/с55%1004 гПаоблачнодождь
14:00+20ЮЗ, 4 м/с57%1004 гПамалооблачно
15:00+20ЮЗ, 4 м/с62%1003 гПас прояснениямидождь